sensor_id;sensor_type;location;lat;lon;timestamp;P1;durP1;ratioP1;P2;durP2;ratioP2
20695;SDS011;10507;52.754;13.040;2024-01-15T00:00:51;15.47;;;8.03;;
20695;SDS011;10507;52.754;13.040;2024-01-15T00:03:19;15.60;;;8.50;;
20695;SDS011;10507;52.754;13.040;2024-01-15T00:05:46;16.73;;;8.83;;
20695;SDS011;10507;52.754;13.040;2024-01-15T00:08:12;18.87;;;9.07;;
20695;SDS011;10507;52.754;13.040;2024-01-15T00:10:39;16.43;;;8.87;;
20695;SDS011;10507;52.754;13.040;2024-01-15T00:13:06;14.47;;;8.27;;
20695;SDS011;10507;52.754;13.040;2024-01-15T00:15:33;15.50;;;8.87;;
20695;SDS011;10507;52.754;13.040;2024-01-15T00:17:59;13.30;;;8.13;;
20695;SDS011;10507;52.754;13.040;2024-01-15T00:20:27;17.83;;;8.97;;
20695;SDS011;10507;52.754;13.040;2024-01-15T00:22:54;15.17;;;8.13;;
20695;SDS011;10507;52.754;13.040;2024-01-15T00:25:21;14.90;;;8.00;;
20695;SDS011;10507;52.754;13.040;2024-01-15T00:27:47;14.53;;;7.57;;
20695;SDS011;10507;52.754;13.040;2024-01-15T00:30:14;15.17;;;8.63;;
20695;SDS011;10507;52.754;13.040;2024-01-15T00:32:41;14.97;;;8.17;;
20695;SDS011;10507;52.754;13.040;2024-01-15T00:35:08;15.20;;;8.27;;
20695;SDS011;10507;52.754;13.040;2024-01-15T00:37:36;15.30;;;8.80;;
20695;SDS011;10507;52.754;13.040;2024-01-15T00:40:03;14.23;;;7.43;;
20695;SDS011;10507;52.754;13.040;2024-01-15T00:42:30;13.47;;;8.00;;
20695;SDS011;10507;52.754;13.040;2024-01-15T00:44:57;14.83;;;7.77;;
20695;SDS011;10507;52.754;13.040;2024-01-15T00:47:24;14.23;;;8.20;;
20695;SDS011;10507;52.754;13.040;2024-01-15T00:49:52;16.03;;;8.47;;
20695;SDS011;10507;52.754;13.040;2024-01-15T00:52:19;15.53;;;7.57;;
20695;SDS011;10507;52.754;13.040;2024-01-15T00:54:47;14.10;;;7.97;;
20695;SDS011;10507;52.754;13.040;2024-01-15T00:57:13;12.80;;;8.00;;
20695;SDS011;10507;52.754;13.040;2024-01-15T00:59:40;13.37;;;7.90;;
20695;SDS011;10507;52.754;13.040;2024-01-15T01:02:07;13.83;;;8.13;;
20695;SDS011;10507;52.754;13.040;2024-01-15T01:04:34;17.00;;;8.33;;
20695;SDS011;10507;52.754;13.040;2024-01-15T01:07:00;11.90;;;6.80;;
20695;SDS011;10507;52.754;13.040;2024-01-15T01:09:27;14.07;;;8.03;;
20695;SDS011;10507;52.754;13.040;2024-01-15T01:11:56;14.70;;;8.80;;
20695;SDS011;10507;52.754;13.040;2024-01-15T01:14:23;15.23;;;8.13;;
20695;SDS011;10507;52.754;13.040;2024-01-15T01:16:49;14.17;;;7.73;;
20695;SDS011;10507;52.754;13.040;2024-01-15T01:19:16;12.07;;;6.00;;
20695;SDS011;10507;52.754;13.040;2024-01-15T01:21:43;13.07;;;7.07;;
20695;SDS011;10507;52.754;13.040;2024-01-15T01:24:09;13.83;;;6.80;;
20695;SDS011;10507;52.754;13.040;2024-01-15T01:26:36;14.07;;;7.50;;
20695;SDS011;10507;52.754;13.040;2024-01-15T01:29:04;13.27;;;6.13;;
20695;SDS011;10507;52.754;13.040;2024-01-15T01:31:31;12.10;;;6.67;;
20695;SDS011;10507;52.754;13.040;2024-01-15T01:33:57;11.40;;;6.07;;
20695;SDS011;10507;52.754;13.040;2024-01-15T01:36:24;11.73;;;6.17;;
20695;SDS011;10507;52.754;13.040;2024-01-15T01:38:50;11.87;;;6.43;;
20695;SDS011;10507;52.754;13.040;2024-01-15T01:41:17;10.80;;;5.77;;
20695;SDS011;10507;52.754;13.040;2024-01-15T01:43:44;12.87;;;6.57;;
20695;SDS011;10507;52.754;13.040;2024-01-15T01:46:11;11.33;;;6.13;;
20695;SDS011;10507;52.754;13.040;2024-01-15T01:48:38;11.53;;;6.30;;
20695;SDS011;10507;52.754;13.040;2024-01-15T01:51:05;10.70;;;5.93;;
20695;SDS011;10507;52.754;13.040;2024-01-15T01:53:33;11.13;;;6.53;;
20695;SDS011;10507;52.754;13.040;2024-01-15T01:56:01;11.87;;;6.07;;
20695;SDS011;10507;52.754;13.040;2024-01-15T01:58:28;11.73;;;5.47;;
20695;SDS011;10507;52.754;13.040;2024-01-15T02:00:56;12.57;;;5.67;;
20695;SDS011;10507;52.754;13.040;2024-01-15T02:03:25;14.43;;;6.60;;
20695;SDS011;10507;52.754;13.040;2024-01-15T02:05:52;11.00;;;6.37;;
20695;SDS011;10507;52.754;13.040;2024-01-15T02:08:21;11.50;;;5.33;;
20695;SDS011;10507;52.754;13.040;2024-01-15T02:10:48;11.43;;;6.00;;
20695;SDS011;10507;52.754;13.040;2024-01-15T02:13:14;11.60;;;5.80;;
20695;SDS011;10507;52.754;13.040;2024-01-15T02:15:41;11.90;;;5.67;;
20695;SDS011;10507;52.754;13.040;2024-01-15T02:18:08;11.10;;;5.23;;
20695;SDS011;10507;52.754;13.040;2024-01-15T02:20:36;11.50;;;6.43;;
20695;SDS011;10507;52.754;13.040;2024-01-15T02:23:07;11.27;;;5.57;;
20695;SDS011;10507;52.754;13.040;2024-01-15T02:25:35;9.50;;;5.33;;
20695;SDS011;10507;52.754;13.040;2024-01-15T02:28:03;9.80;;;6.00;;
20695;SDS011;10507;52.754;13.040;2024-01-15T02:30:30;13.97;;;5.50;;
20695;SDS011;10507;52.754;13.040;2024-01-15T02:32:57;8.57;;;5.23;;
20695;SDS011;10507;52.754;13.040;2024-01-15T02:35:24;12.03;;;5.60;;
20695;SDS011;10507;52.754;13.040;2024-01-15T02:37:51;8.37;;;4.80;;
20695;SDS011;10507;52.754;13.040;2024-01-15T02:40:19;10.43;;;4.97;;
20695;SDS011;10507;52.754;13.040;2024-01-15T02:42:45;10.67;;;5.33;;
20695;SDS011;10507;52.754;13.040;2024-01-15T02:45:12;11.57;;;4.77;;
20695;SDS011;10507;52.754;13.040;2024-01-15T02:47:39;9.90;;;4.30;;
20695;SDS011;10507;52.754;13.040;2024-01-15T02:50:06;11.03;;;5.13;;
20695;SDS011;10507;52.754;13.040;2024-01-15T02:52:33;13.03;;;5.67;;
20695;SDS011;10507;52.754;13.040;2024-01-15T02:54:59;10.57;;;5.87;;
20695;SDS011;10507;52.754;13.040;2024-01-15T02:57:28;9.57;;;5.30;;
20695;SDS011;10507;52.754;13.040;2024-01-15T02:59:54;10.23;;;4.57;;
20695;SDS011;10507;52.754;13.040;2024-01-15T03:02:21;13.77;;;5.37;;
20695;SDS011;10507;52.754;13.040;2024-01-15T03:04:47;11.33;;;4.73;;
20695;SDS011;10507;52.754;13.040;2024-01-15T03:07:14;9.93;;;4.80;;
20695;SDS011;10507;52.754;13.040;2024-01-15T03:09:41;9.53;;;4.73;;
20695;SDS011;10507;52.754;13.040;2024-01-15T03:12:08;9.43;;;4.93;;
20695;SDS011;10507;52.754;13.040;2024-01-15T03:14:36;13.67;;;4.70;;
20695;SDS011;10507;52.754;13.040;2024-01-15T03:17:02;10.77;;;4.43;;
20695;SDS011;10507;52.754;13.040;2024-01-15T03:19:29;11.63;;;5.07;;
20695;SDS011;10507;52.754;13.040;2024-01-15T03:21:56;7.17;;;4.07;;
20695;SDS011;10507;52.754;13.040;2024-01-15T03:24:23;7.23;;;3.77;;
20695;SDS011;10507;52.754;13.040;2024-01-15T03:26:49;7.77;;;4.07;;
20695;SDS011;10507;52.754;13.040;2024-01-15T03:29:16;10.53;;;4.70;;
20695;SDS011;10507;52.754;13.040;2024-01-15T03:31:44;13.33;;;5.30;;
20695;SDS011;10507;52.754;13.040;2024-01-15T03:34:11;9.00;;;4.00;;
20695;SDS011;10507;52.754;13.040;2024-01-15T03:36:37;10.50;;;3.50;;
20695;SDS011;10507;52.754;13.040;2024-01-15T03:39:04;8.63;;;3.73;;
20695;SDS011;10507;52.754;13.040;2024-01-15T03:41:31;8.63;;;4.47;;
20695;SDS011;10507;52.754;13.040;2024-01-15T03:43:57;13.63;;;4.07;;
20695;SDS011;10507;52.754;13.040;2024-01-15T03:46:24;14.83;;;4.33;;
20695;SDS011;10507;52.754;13.040;2024-01-15T03:48:52;8.40;;;4.17;;
20695;SDS011;10507;52.754;13.040;2024-01-15T03:51:19;10.03;;;3.80;;
20695;SDS011;10507;52.754;13.040;2024-01-15T03:53:46;8.37;;;4.37;;
20695;SDS011;10507;52.754;13.040;2024-01-15T03:56:13;10.57;;;4.43;;
20695;SDS011;10507;52.754;13.040;2024-01-15T03:58:40;10.33;;;5.00;;
20695;SDS011;10507;52.754;13.040;2024-01-15T04:01:07;9.67;;;3.80;;
20695;SDS011;10507;52.754;13.040;2024-01-15T04:03:34;8.23;;;3.30;;
20695;SDS011;10507;52.754;13.040;2024-01-15T04:06:03;11.23;;;3.83;;
20695;SDS011;10507;52.754;13.040;2024-01-15T04:08:30;10.00;;;3.93;;
20695;SDS011;10507;52.754;13.040;2024-01-15T04:10:56;8.30;;;3.40;;
20695;SDS011;10507;52.754;13.040;2024-01-15T04:13:23;9.40;;;3.60;;
20695;SDS011;10507;52.754;13.040;2024-01-15T04:15:50;7.47;;;3.73;;
20695;SDS011;10507;52.754;13.040;2024-01-15T04:18:16;11.23;;;3.37;;
20695;SDS011;10507;52.754;13.040;2024-01-15T04:20:43;7.37;;;3.63;;
20695;SDS011;10507;52.754;13.040;2024-01-15T04:23:11;7.57;;;3.53;;
20695;SDS011;10507;52.754;13.040;2024-01-15T04:25:38;8.47;;;3.10;;
20695;SDS011;10507;52.754;13.040;2024-01-15T04:28:07;5.00;;;2.80;;
20695;SDS011;10507;52.754;13.040;2024-01-15T04:30:34;8.93;;;3.10;;
20695;SDS011;10507;52.754;13.040;2024-01-15T04:33:00;9.03;;;2.90;;
20695;SDS011;10507;52.754;13.040;2024-01-15T04:35:29;9.60;;;3.40;;
20695;SDS011;10507;52.754;13.040;2024-01-15T04:37:56;6.67;;;3.20;;
20695;SDS011;10507;52.754;13.040;2024-01-15T04:40:24;8.63;;;3.47;;
20695;SDS011;10507;52.754;13.040;2024-01-15T04:42:52;7.37;;;2.83;;
20695;SDS011;10507;52.754;13.040;2024-01-15T04:45:19;7.17;;;3.80;;
20695;SDS011;10507;52.754;13.040;2024-01-15T04:47:47;9.47;;;3.43;;
20695;SDS011;10507;52.754;13.040;2024-01-15T04:50:14;9.07;;;3.30;;
20695;SDS011;10507;52.754;13.040;2024-01-15T04:52:41;7.40;;;2.83;;
20695;SDS011;10507;52.754;13.040;2024-01-15T04:55:08;6.50;;;3.43;;
20695;SDS011;10507;52.754;13.040;2024-01-15T04:57:36;8.90;;;2.80;;
20695;SDS011;10507;52.754;13.040;2024-01-15T05:00:03;9.03;;;3.73;;
20695;SDS011;10507;52.754;13.040;2024-01-15T05:02:30;8.10;;;3.07;;
20695;SDS011;10507;52.754;13.040;2024-01-15T05:04:56;9.13;;;3.20;;
20695;SDS011;10507;52.754;13.040;2024-01-15T05:07:23;10.50;;;3.60;;
20695;SDS011;10507;52.754;13.040;2024-01-15T05:09:50;7.83;;;2.50;;
20695;SDS011;10507;52.754;13.040;2024-01-15T05:12:16;11.07;;;4.03;;
20695;SDS011;10507;52.754;13.040;2024-01-15T05:14:44;10.60;;;3.17;;
20695;SDS011;10507;52.754;13.040;2024-01-15T05:17:11;8.70;;;3.00;;
20695;SDS011;10507;52.754;13.040;2024-01-15T05:19:38;8.07;;;2.57;;
20695;SDS011;10507;52.754;13.040;2024-01-15T05:22:04;8.00;;;2.97;;
20695;SDS011;10507;52.754;13.040;2024-01-15T05:24:31;7.50;;;2.40;;
20695;SDS011;10507;52.754;13.040;2024-01-15T05:27:00;12.53;;;3.83;;
20695;SDS011;10507;52.754;13.040;2024-01-15T05:29:26;6.50;;;3.37;;
20695;SDS011;10507;52.754;13.040;2024-01-15T05:31:54;6.83;;;2.50;;
20695;SDS011;10507;52.754;13.040;2024-01-15T05:34:21;8.53;;;2.17;;
20695;SDS011;10507;52.754;13.040;2024-01-15T05:36:48;3.43;;;2.17;;
20695;SDS011;10507;52.754;13.040;2024-01-15T05:39:14;5.60;;;2.33;;
20695;SDS011;10507;52.754;13.040;2024-01-15T05:41:41;5.27;;;2.47;;
20695;SDS011;10507;52.754;13.040;2024-01-15T05:44:07;7.57;;;1.83;;
20695;SDS011;10507;52.754;13.040;2024-01-15T05:46:35;7.10;;;2.20;;
20695;SDS011;10507;52.754;13.040;2024-01-15T05:49:03;6.23;;;2.17;;
20695;SDS011;10507;52.754;13.040;2024-01-15T05:51:30;5.17;;;2.10;;
20695;SDS011;10507;52.754;13.040;2024-01-15T05:53:57;2.67;;;1.70;;
20695;SDS011;10507;52.754;13.040;2024-01-15T05:56:24;9.73;;;2.60;;
20695;SDS011;10507;52.754;13.040;2024-01-15T05:58:51;6.00;;;2.00;;
20695;SDS011;10507;52.754;13.040;2024-01-15T06:01:17;5.17;;;1.70;;
20695;SDS011;10507;52.754;13.040;2024-01-15T06:03:44;3.20;;;1.63;;
20695;SDS011;10507;52.754;13.040;2024-01-15T06:06:12;4.07;;;1.77;;
20695;SDS011;10507;52.754;13.040;2024-01-15T06:08:39;8.77;;;2.87;;
20695;SDS011;10507;52.754;13.040;2024-01-15T06:11:06;6.00;;;1.53;;
20695;SDS011;10507;52.754;13.040;2024-01-15T06:13:33;4.43;;;1.80;;
20695;SDS011;10507;52.754;13.040;2024-01-15T06:16:00;3.50;;;2.00;;
20695;SDS011;10507;52.754;13.040;2024-01-15T06:18:26;4.17;;;1.60;;
20695;SDS011;10507;52.754;13.040;2024-01-15T06:20:53;6.97;;;2.10;;
20695;SDS011;10507;52.754;13.040;2024-01-15T06:23:21;6.10;;;1.60;;
20695;SDS011;10507;52.754;13.040;2024-01-15T06:25:47;5.60;;;2.33;;
20695;SDS011;10507;52.754;13.040;2024-01-15T06:28:14;4.77;;;1.70;;
20695;SDS011;10507;52.754;13.040;2024-01-15T06:30:41;10.17;;;1.97;;
20695;SDS011;10507;52.754;13.040;2024-01-15T06:33:07;4.67;;;1.90;;
20695;SDS011;10507;52.754;13.040;2024-01-15T06:35:34;8.90;;;2.63;;
20695;SDS011;10507;52.754;13.040;2024-01-15T06:38:01;4.27;;;2.07;;
20695;SDS011;10507;52.754;13.040;2024-01-15T06:40:29;10.03;;;2.23;;
20695;SDS011;10507;52.754;13.040;2024-01-15T06:42:55;6.87;;;2.63;;
20695;SDS011;10507;52.754;13.040;2024-01-15T06:45:22;4.17;;;2.23;;
20695;SDS011;10507;52.754;13.040;2024-01-15T06:47:49;10.73;;;3.20;;
20695;SDS011;10507;52.754;13.040;2024-01-15T06:50:15;4.70;;;2.00;;
20695;SDS011;10507;52.754;13.040;2024-01-15T06:52:42;8.50;;;1.77;;
20695;SDS011;10507;52.754;13.040;2024-01-15T06:55:08;8.00;;;2.53;;
20695;SDS011;10507;52.754;13.040;2024-01-15T06:57:36;9.57;;;2.37;;
20695;SDS011;10507;52.754;13.040;2024-01-15T07:00:03;9.00;;;1.90;;
20695;SDS011;10507;52.754;13.040;2024-01-15T07:02:33;11.30;;;2.50;;
20695;SDS011;10507;52.754;13.040;2024-01-15T07:04:59;5.20;;;2.00;;
20695;SDS011;10507;52.754;13.040;2024-01-15T07:07:26;8.70;;;2.00;;
20695;SDS011;10507;52.754;13.040;2024-01-15T07:09:54;7.00;;;2.40;;
20695;SDS011;10507;52.754;13.040;2024-01-15T07:12:21;10.43;;;2.43;;
20695;SDS011;10507;52.754;13.040;2024-01-15T07:14:49;8.77;;;2.70;;
20695;SDS011;10507;52.754;13.040;2024-01-15T07:17:16;10.50;;;2.60;;
20695;SDS011;10507;52.754;13.040;2024-01-15T07:19:42;9.53;;;2.20;;
20695;SDS011;10507;52.754;13.040;2024-01-15T07:22:09;9.83;;;2.47;;
20695;SDS011;10507;52.754;13.040;2024-01-15T07:24:36;10.77;;;2.50;;
20695;SDS011;10507;52.754;13.040;2024-01-15T07:27:03;8.33;;;2.60;;
20695;SDS011;10507;52.754;13.040;2024-01-15T07:29:30;11.00;;;2.80;;
20695;SDS011;10507;52.754;13.040;2024-01-15T07:31:59;8.60;;;2.60;;
20695;SDS011;10507;52.754;13.040;2024-01-15T07:34:26;10.53;;;2.67;;
20695;SDS011;10507;52.754;13.040;2024-01-15T07:36:53;6.57;;;2.13;;
20695;SDS011;10507;52.754;13.040;2024-01-15T07:39:19;7.20;;;2.10;;
20695;SDS011;10507;52.754;13.040;2024-01-15T07:41:47;12.03;;;2.63;;
20695;SDS011;10507;52.754;13.040;2024-01-15T07:44:14;11.60;;;2.37;;
20695;SDS011;10507;52.754;13.040;2024-01-15T07:46:43;5.40;;;2.23;;
20695;SDS011;10507;52.754;13.040;2024-01-15T07:49:11;10.17;;;2.63;;
20695;SDS011;10507;52.754;13.040;2024-01-15T07:51:38;11.60;;;2.40;;
20695;SDS011;10507;52.754;13.040;2024-01-15T07:54:06;9.63;;;2.67;;
20695;SDS011;10507;52.754;13.040;2024-01-15T07:56:33;13.73;;;2.57;;
20695;SDS011;10507;52.754;13.040;2024-01-15T07:58:59;8.70;;;2.47;;
20695;SDS011;10507;52.754;13.040;2024-01-15T08:01:26;13.90;;;3.07;;
20695;SDS011;10507;52.754;13.040;2024-01-15T08:03:53;10.17;;;2.10;;
20695;SDS011;10507;52.754;13.040;2024-01-15T08:06:21;7.53;;;2.20;;
20695;SDS011;10507;52.754;13.040;2024-01-15T08:08:48;5.17;;;2.10;;
20695;SDS011;10507;52.754;13.040;2024-01-15T08:11:15;12.70;;;2.70;;
20695;SDS011;10507;52.754;13.040;2024-01-15T08:13:41;6.37;;;1.90;;
20695;SDS011;10507;52.754;13.040;2024-01-15T08:16:08;8.90;;;2.97;;
20695;SDS011;10507;52.754;13.040;2024-01-15T08:18:34;9.50;;;2.20;;
20695;SDS011;10507;52.754;13.040;2024-01-15T08:21:01;8.40;;;2.40;;
20695;SDS011;10507;52.754;13.040;2024-01-15T08:23:29;14.30;;;2.60;;
20695;SDS011;10507;52.754;13.040;2024-01-15T08:25:56;9.83;;;2.43;;
20695;SDS011;10507;52.754;13.040;2024-01-15T08:28:23;9.90;;;2.33;;
20695;SDS011;10507;52.754;13.040;2024-01-15T08:30:49;8.83;;;2.10;;
20695;SDS011;10507;52.754;13.040;2024-01-15T08:33:16;9.40;;;3.87;;
20695;SDS011;10507;52.754;13.040;2024-01-15T08:35:43;5.67;;;2.20;;
20695;SDS011;10507;52.754;13.040;2024-01-15T08:38:09;11.23;;;1.97;;
20695;SDS011;10507;52.754;13.040;2024-01-15T08:40:37;6.50;;;1.97;;
20695;SDS011;10507;52.754;13.040;2024-01-15T08:43:04;6.17;;;1.83;;
20695;SDS011;10507;52.754;13.040;2024-01-15T08:45:31;8.63;;;1.87;;
20695;SDS011;10507;52.754;13.040;2024-01-15T08:47:58;8.57;;;2.20;;
20695;SDS011;10507;52.754;13.040;2024-01-15T08:50:26;6.27;;;1.80;;
20695;SDS011;10507;52.754;13.040;2024-01-15T08:52:52;9.20;;;2.40;;
20695;SDS011;10507;52.754;13.040;2024-01-15T08:55:19;5.23;;;1.90;;
20695;SDS011;10507;52.754;13.040;2024-01-15T08:57:48;6.27;;;1.90;;
20695;SDS011;10507;52.754;13.040;2024-01-15T09:00:16;13.13;;;2.50;;
20695;SDS011;10507;52.754;13.040;2024-01-15T09:02:43;11.20;;;2.33;;
20695;SDS011;10507;52.754;13.040;2024-01-15T09:05:10;10.07;;;2.10;;
20695;SDS011;10507;52.754;13.040;2024-01-15T09:07:37;7.97;;;2.10;;
20695;SDS011;10507;52.754;13.040;2024-01-15T09:10:04;8.20;;;1.90;;
20695;SDS011;10507;52.754;13.040;2024-01-15T09:12:31;10.47;;;2.40;;
20695;SDS011;10507;52.754;13.040;2024-01-15T09:14:59;7.80;;;1.80;;
20695;SDS011;10507;52.754;13.040;2024-01-15T09:17:29;10.87;;;2.77;;
20695;SDS011;10507;52.754;13.040;2024-01-15T09:19:56;8.43;;;2.30;;
20695;SDS011;10507;52.754;13.040;2024-01-15T09:22:22;8.40;;;2.10;;
20695;SDS011;10507;52.754;13.040;2024-01-15T09:24:49;5.40;;;2.00;;
20695;SDS011;10507;52.754;13.040;2024-01-15T09:27:16;9.83;;;2.40;;
20695;SDS011;10507;52.754;13.040;2024-01-15T09:29:42;6.83;;;1.90;;
20695;SDS011;10507;52.754;13.040;2024-01-15T09:32:12;3.53;;;1.80;;
20695;SDS011;10507;52.754;13.040;2024-01-15T09:34:38;7.50;;;1.93;;
20695;SDS011;10507;52.754;13.040;2024-01-15T09:37:06;5.83;;;1.60;;
20695;SDS011;10507;52.754;13.040;2024-01-15T09:39:33;7.40;;;1.80;;
20695;SDS011;10507;52.754;13.040;2024-01-15T09:42:00;4.40;;;1.90;;
20695;SDS011;10507;52.754;13.040;2024-01-15T09:44:27;4.17;;;1.70;;
20695;SDS011;10507;52.754;13.040;2024-01-15T09:46:55;5.07;;;1.73;;
20695;SDS011;10507;52.754;13.040;2024-01-15T09:49:23;3.13;;;1.60;;
20695;SDS011;10507;52.754;13.040;2024-01-15T09:51:50;11.70;;;2.07;;
20695;SDS011;10507;52.754;13.040;2024-01-15T09:54:17;7.87;;;2.03;;
20695;SDS011;10507;52.754;13.040;2024-01-15T09:56:45;6.10;;;1.67;;
20695;SDS011;10507;52.754;13.040;2024-01-15T09:59:12;4.43;;;1.63;;
20695;SDS011;10507;52.754;13.040;2024-01-15T10:01:40;2.87;;;1.37;;
20695;SDS011;10507;52.754;13.040;2024-01-15T10:04:09;5.07;;;1.63;;
20695;SDS011;10507;52.754;13.040;2024-01-15T10:06:37;3.67;;;1.40;;
20695;SDS011;10507;52.754;13.040;2024-01-15T10:09:05;4.50;;;1.50;;
20695;SDS011;10507;52.754;13.040;2024-01-15T10:11:33;4.93;;;2.00;;
20695;SDS011;10507;52.754;13.040;2024-01-15T10:14:00;11.47;;;5.00;;
20695;SDS011;10507;52.754;13.040;2024-01-15T10:16:27;5.17;;;1.90;;
20695;SDS011;10507;52.754;13.040;2024-01-15T10:18:54;3.83;;;1.50;;
20695;SDS011;10507;52.754;13.040;2024-01-15T10:21:20;3.77;;;1.53;;
20695;SDS011;10507;52.754;13.040;2024-01-15T10:23:48;4.27;;;1.60;;
20695;SDS011;10507;52.754;13.040;2024-01-15T10:26:15;3.63;;;1.50;;
20695;SDS011;10507;52.754;13.040;2024-01-15T10:28:42;3.30;;;1.50;;
20695;SDS011;10507;52.754;13.040;2024-01-15T10:31:08;4.50;;;1.70;;
20695;SDS011;10507;52.754;13.040;2024-01-15T10:33:36;4.50;;;1.50;;
20695;SDS011;10507;52.754;13.040;2024-01-15T10:36:03;6.07;;;1.67;;
20695;SDS011;10507;52.754;13.040;2024-01-15T10:38:36;2.53;;;1.70;;
20695;SDS011;10507;52.754;13.040;2024-01-15T10:41:04;5.23;;;2.00;;
20695;SDS011;10507;52.754;13.040;2024-01-15T10:43:30;4.03;;;1.77;;
20695;SDS011;10507;52.754;13.040;2024-01-15T10:45:57;5.30;;;1.57;;
20695;SDS011;10507;52.754;13.040;2024-01-15T10:48:24;5.27;;;1.60;;
20695;SDS011;10507;52.754;13.040;2024-01-15T10:50:53;5.40;;;1.97;;
20695;SDS011;10507;52.754;13.040;2024-01-15T10:53:20;4.10;;;1.50;;
20695;SDS011;10507;52.754;13.040;2024-01-15T10:55:47;4.00;;;1.53;;
20695;SDS011;10507;52.754;13.040;2024-01-15T10:58:16;5.90;;;1.77;;
20695;SDS011;10507;52.754;13.040;2024-01-15T11:00:44;4.80;;;1.50;;
20695;SDS011;10507;52.754;13.040;2024-01-15T11:03:11;2.10;;;1.20;;
20695;SDS011;10507;52.754;13.040;2024-01-15T11:05:38;3.87;;;1.20;;
20695;SDS011;10507;52.754;13.040;2024-01-15T11:08:05;2.30;;;1.37;;
20695;SDS011;10507;52.754;13.040;2024-01-15T11:10:39;1.73;;;1.30;;
20695;SDS011;10507;52.754;13.040;2024-01-15T11:13:10;2.10;;;1.03;;
20695;SDS011;10507;52.754;13.040;2024-01-15T11:18:34;1.67;;;1.10;;
20695;SDS011;10507;52.754;13.040;2024-01-15T11:23:50;1.30;;;0.90;;
20695;SDS011;10507;52.754;13.040;2024-01-15T11:26:28;1.93;;;1.10;;
20695;SDS011;10507;52.754;13.040;2024-01-15T11:29:03;4.90;;;1.33;;
20695;SDS011;10507;52.754;13.040;2024-01-15T11:37:27;1.57;;;1.00;;
20695;SDS011;10507;52.754;13.040;2024-01-15T11:39:55;1.83;;;1.00;;
20695;SDS011;10507;52.754;13.040;2024-01-15T11:42:25;1.50;;;1.27;;
20695;SDS011;10507;52.754;13.040;2024-01-15T11:44:52;1.53;;;1.20;;
20695;SDS011;10507;52.754;13.040;2024-01-15T11:47:27;1.33;;;1.03;;
20695;SDS011;10507;52.754;13.040;2024-01-15T11:50:11;1.37;;;1.00;;
20695;SDS011;10507;52.754;13.040;2024-01-15T11:52:38;0.83;;;0.83;;
20695;SDS011;10507;52.754;13.040;2024-01-15T11:55:16;1.00;;;0.90;;
20695;SDS011;10507;52.754;13.040;2024-01-15T11:57:49;1.23;;;0.80;;
20695;SDS011;10507;52.754;13.040;2024-01-15T12:00:19;2.80;;;1.10;;
20695;SDS011;10507;52.754;13.040;2024-01-15T12:02:47;1.40;;;1.30;;
20695;SDS011;10507;52.754;13.040;2024-01-15T12:05:18;1.77;;;1.10;;
20695;SDS011;10507;52.754;13.040;2024-01-15T12:07:46;1.70;;;1.17;;
20695;SDS011;10507;52.754;13.040;2024-01-15T12:10:16;2.77;;;1.40;;
20695;SDS011;10507;52.754;13.040;2024-01-15T12:12:50;3.10;;;1.77;;
20695;SDS011;10507;52.754;13.040;2024-01-15T12:15:23;2.23;;;1.50;;
20695;SDS011;10507;52.754;13.040;2024-01-15T12:17:51;1.63;;;1.27;;
20695;SDS011;10507;52.754;13.040;2024-01-15T12:20:19;2.63;;;1.30;;
20695;SDS011;10507;52.754;13.040;2024-01-15T12:22:45;1.47;;;1.17;;
20695;SDS011;10507;52.754;13.040;2024-01-15T12:25:12;5.17;;;1.63;;
20695;SDS011;10507;52.754;13.040;2024-01-15T12:27:39;1.83;;;1.13;;
20695;SDS011;10507;52.754;13.040;2024-01-15T12:30:06;1.53;;;1.43;;
20695;SDS011;10507;52.754;13.040;2024-01-15T12:32:36;1.20;;;1.00;;
20695;SDS011;10507;52.754;13.040;2024-01-15T12:35:03;3.67;;;1.57;;
20695;SDS011;10507;52.754;13.040;2024-01-15T12:37:32;1.90;;;1.37;;
20695;SDS011;10507;52.754;13.040;2024-01-15T12:39:58;2.60;;;1.30;;
20695;SDS011;10507;52.754;13.040;2024-01-15T12:42:25;2.27;;;1.20;;
20695;SDS011;10507;52.754;13.040;2024-01-15T12:44:54;2.03;;;1.30;;
20695;SDS011;10507;52.754;13.040;2024-01-15T12:47:22;1.67;;;1.20;;
20695;SDS011;10507;52.754;13.040;2024-01-15T12:49:50;1.43;;;1.30;;
20695;SDS011;10507;52.754;13.040;2024-01-15T12:52:19;2.20;;;1.27;;
20695;SDS011;10507;52.754;13.040;2024-01-15T12:54:48;1.93;;;1.30;;
20695;SDS011;10507;52.754;13.040;2024-01-15T12:57:14;2.70;;;1.20;;
20695;SDS011;10507;52.754;13.040;2024-01-15T12:59:41;2.13;;;1.20;;
20695;SDS011;10507;52.754;13.040;2024-01-15T13:02:08;1.10;;;1.00;;
20695;SDS011;10507;52.754;13.040;2024-01-15T13:04:35;2.70;;;1.10;;
20695;SDS011;10507;52.754;13.040;2024-01-15T13:07:02;2.00;;;1.50;;
20695;SDS011;10507;52.754;13.040;2024-01-15T13:09:28;2.83;;;1.30;;
20695;SDS011;10507;52.754;13.040;2024-01-15T13:11:57;4.10;;;1.40;;
20695;SDS011;10507;52.754;13.040;2024-01-15T13:14:23;2.93;;;1.53;;
20695;SDS011;10507;52.754;13.040;2024-01-15T13:16:50;1.93;;;1.40;;
20695;SDS011;10507;52.754;13.040;2024-01-15T13:19:17;2.73;;;1.47;;
20695;SDS011;10507;52.754;13.040;2024-01-15T13:21:44;2.47;;;1.30;;
20695;SDS011;10507;52.754;13.040;2024-01-15T13:24:10;3.17;;;1.40;;
20695;SDS011;10507;52.754;13.040;2024-01-15T13:26:37;2.37;;;1.40;;
20695;SDS011;10507;52.754;13.040;2024-01-15T13:29:05;1.60;;;1.43;;
20695;SDS011;10507;52.754;13.040;2024-01-15T13:31:32;2.40;;;1.47;;
20695;SDS011;10507;52.754;13.040;2024-01-15T13:33:59;3.20;;;1.50;;
20695;SDS011;10507;52.754;13.040;2024-01-15T13:36:26;2.37;;;1.70;;
20695;SDS011;10507;52.754;13.040;2024-01-15T13:38:53;3.90;;;1.90;;
20695;SDS011;10507;52.754;13.040;2024-01-15T13:41:20;3.23;;;1.83;;
20695;SDS011;10507;52.754;13.040;2024-01-15T13:43:50;4.10;;;1.97;;
20695;SDS011;10507;52.754;13.040;2024-01-15T13:46:19;3.13;;;2.27;;
20695;SDS011;10507;52.754;13.040;2024-01-15T13:48:46;5.43;;;2.43;;
20695;SDS011;10507;52.754;13.040;2024-01-15T13:51:13;4.13;;;2.57;;
20695;SDS011;10507;52.754;13.040;2024-01-15T13:53:40;4.40;;;2.40;;
20695;SDS011;10507;52.754;13.040;2024-01-15T13:56:07;3.70;;;2.47;;
20695;SDS011;10507;52.754;13.040;2024-01-15T13:58:35;10.57;;;3.90;;
20695;SDS011;10507;52.754;13.040;2024-01-15T14:01:02;6.23;;;3.00;;
20695;SDS011;10507;52.754;13.040;2024-01-15T14:03:32;6.07;;;3.20;;
20695;SDS011;10507;52.754;13.040;2024-01-15T14:05:59;5.90;;;3.20;;
20695;SDS011;10507;52.754;13.040;2024-01-15T14:08:27;5.83;;;3.43;;
20695;SDS011;10507;52.754;13.040;2024-01-15T14:10:54;4.97;;;1.90;;
20695;SDS011;10507;52.754;13.040;2024-01-15T14:13:22;3.93;;;2.33;;
20695;SDS011;10507;52.754;13.040;2024-01-15T14:15:48;6.20;;;3.30;;
20695;SDS011;10507;52.754;13.040;2024-01-15T14:18:15;6.20;;;3.10;;
20695;SDS011;10507;52.754;13.040;2024-01-15T14:20:43;6.57;;;3.00;;
20695;SDS011;10507;52.754;13.040;2024-01-15T14:23:10;4.80;;;2.50;;
20695;SDS011;10507;52.754;13.040;2024-01-15T14:25:37;7.90;;;2.90;;
20695;SDS011;10507;52.754;13.040;2024-01-15T14:28:04;7.70;;;3.73;;
20695;SDS011;10507;52.754;13.040;2024-01-15T14:30:31;7.77;;;3.57;;
20695;SDS011;10507;52.754;13.040;2024-01-15T14:32:58;6.77;;;3.37;;
20695;SDS011;10507;52.754;13.040;2024-01-15T14:35:24;4.47;;;2.27;;
20695;SDS011;10507;52.754;13.040;2024-01-15T14:37:53;2.13;;;1.80;;
20695;SDS011;10507;52.754;13.040;2024-01-15T14:40:19;3.50;;;1.70;;
20695;SDS011;10507;52.754;13.040;2024-01-15T14:42:46;6.37;;;1.90;;